Regine — DFVJ2 — position and weather

sailwx.info

Track history (hours):
 
Tides and Currents Weather Stations Pressure Air Temp Water Temp Dewpoint Dewpoint Depression Visibility Wind Speed Wind Dir Waves Ship Positions

Regine

Last reported at 2017-Nov-09 02:20 UTC. Time now 2017-Nov-19 01:33 UTC.
Position N 01°17' E 103°21'.
Warning: this ship's position is 9 days out of date.

Length 159 m; draft 8.1 m.

Type: Cargo ship. MMSI: 218170000.

Date/timePositionNaut miles runAvg speedWind from/ knotsBaromVisibWave heightAir tempDewpointWater temp
2017-Nov-09 02:20N 01°17' E 103°21'619.5
2017-Nov-09 02:00N 01°14' E 103°27'1020.1
2017-Nov-09 01:30N 01°12' E 103°37'917.9
2017-Nov-09 01:00N 01°09' E 103°45'1019.3
2017-Nov-09 00:29N 01°14' E 103°54'2 2.2
2017-Nov-08 23:42N 01°15' E 103°53'0 0.0
2017-Nov-08 23:29N 01°15' E 103°53'0 0.0
2017-Nov-08 22:59N 01°15' E 103°53'0 0.0
2017-Nov-08 22:17N 01°15' E 103°53'0 0.0
2017-Nov-08 21:59N 01°15' E 103°53'0 0.0
2017-Nov-08 21:23N 01°15' E 103°53'0 0.0
2017-Nov-08 20:58N 01°15' E 103°53'0 0.0
2017-Nov-08 20:28N 01°15' E 103°53'0 0.0
2017-Nov-08 19:58N 01°15' E 103°53'0 0.0
2017-Nov-08 19:24N 01°15' E 103°53'0 0.0
2017-Nov-08 18:58N 01°15' E 103°53'0 0.0
2017-Nov-08 18:27N 01°15' E 103°53'0 0.0
2017-Nov-08 17:51N 01°15' E 103°53'0 0.0
2017-Nov-08 17:23N 01°15' E 103°53'0 0.0
2017-Nov-08 16:57N 01°15' E 103°53'0 0.0
2017-Nov-08 16:26N 01°15' E 103°53'0 0.0
2017-Nov-08 15:50N 01°15' E 103°53'0 0.0
2017-Nov-08 15:26N 01°15' E 103°53'0 0.0
2017-Nov-08 14:50N 01°15' E 103°53'0 0.0
2017-Nov-08 14:13N 01°15' E 103°53'0 0.2
2017-Nov-08 13:49N 01°15' E 103°54'0 0.0
2017-Nov-08 12:31N 01°15' E 103°54'0 0.1
2017-Nov-08 12:25N 01°15' E 103°54'0 0.2
2017-Nov-08 12:00N 01°15' E 103°54'2 3.3
2017-Nov-08 11:30N 01°14' E 103°53'0 0.5
2017-Nov-08 11:00N 01°14' E 103°54'0 0.6
2017-Nov-08 10:30N 01°14' E 103°54'611.1
2017-Nov-08 10:00N 01°15' E 103°59'7 4.1
2017-Nov-08 08:15N 01°20' E 104°05'4 0.6
2017-Nov-08 00:56N 01°22' E 104°02'510.5
2017-Nov-08 00:27N 01°19' E 104°06'2 0.1
2017-Nov-07 06:49N 01°19' E 104°07'6 7.3
2017-Nov-07 06:00N 01°14' E 104°05'611.3
2017-Nov-07 05:29N 01°10' E 103°60'  
2017-Nov-02 08:09N 01°10' E 104°00'1 2.2
2017-Nov-02 07:49N 01°11' E 103°59'2 7.3
2017-Nov-02 07:29N 01°11' E 103°57'2 4.8
2017-Nov-02 07:00N 01°12' E 103°55'714.0
2017-Nov-02 06:30N 01°13' E 103°48'611.1
2017-Nov-02 06:01N 01°17' E 103°44'2 3.7
2017-Nov-02 05:30N 01°18' E 103°43'0 0.0
2017-Nov-02 04:54N 01°18' E 103°43'0 0.0
2017-Nov-02 04:30N 01°18' E 103°43'0 0.0
2017-Nov-02 03:53N 01°18' E 103°43'0 0.0
2017-Nov-02 03:29N 01°18' E 103°43'0 0.0
2017-Nov-02 02:59N 01°18' E 103°43'0 0.0
2017-Nov-02 02:23N 01°18' E 103°43'0 0.0
2017-Nov-02 01:59N 01°18' E 103°43'0 0.0
2017-Nov-02 01:22N 01°18' E 103°43'0 0.0
2017-Nov-02 00:58N 01°18' E 103°43'0 0.0
2017-Nov-02 00:28N 01°18' E 103°43'0 0.0
2017-Nov-01 23:52N 01°18' E 103°43'0 0.0
2017-Nov-01 23:28N 01°18' E 103°43'0 0.0
2017-Nov-01 22:57N 01°18' E 103°43'0 0.0
2017-Nov-01 22:27N 01°18' E 103°43'0 0.0
2017-Nov-01 21:57N 01°18' E 103°43'0 0.0
2017-Nov-01 21:27N 01°18' E 103°43'0 0.0
2017-Nov-01 20:56N 01°18' E 103°43'0 0.0
2017-Nov-01 20:26N 01°18' E 103°43'0 0.0
2017-Nov-01 19:56N 01°18' E 103°43'0 0.0
2017-Nov-01 19:26N 01°18' E 103°43'0 0.0
2017-Nov-01 18:56N 01°18' E 103°43'0 0.0
2017-Nov-01 18:25N 01°18' E 103°43'0 0.0
2017-Nov-01 01:54N 01°18' E 103°43'0 0.0
2017-Nov-01 01:30N 01°18' E 103°43'0 0.0
2017-Nov-01 01:00N 01°18' E 103°43'0 0.0
2017-Nov-01 00:30N 01°18' E 103°43'0 0.0
2017-Oct-31 23:59N 01°18' E 103°43'0 0.0
2017-Oct-31 23:29N 01°18' E 103°43'0 0.0
2017-Oct-31 22:53N 01°18' E 103°43'0 0.0
2017-Oct-31 22:29N 01°18' E 103°43'0 0.0
2017-Oct-31 21:59N 01°18' E 103°43'0 0.0
2017-Oct-31 21:28N 01°18' E 103°43'0 0.0
2017-Oct-31 20:58N 01°18' E 103°43'0 0.0
2017-Oct-31 20:28N 01°18' E 103°43'0 0.0
2017-Oct-31 19:58N 01°18' E 103°43'0 0.0
2017-Oct-31 19:27N 01°18' E 103°43'0 0.0
2017-Oct-31 18:57N 01°18' E 103°43'0 0.0
2017-Oct-31 18:27N 01°18' E 103°43'0 0.0
2017-Oct-31 17:57N 01°18' E 103°43'0 0.0
2017-Oct-31 17:27N 01°18' E 103°43'0 0.0
2017-Oct-31 16:56N 01°18' E 103°43'0 0.0
2017-Oct-31 16:26N 01°18' E 103°43'0 0.0
2017-Oct-31 15:56N 01°18' E 103°43'0 0.0
2017-Oct-31 15:26N 01°18' E 103°43'0 0.0
2017-Oct-31 14:55N 01°18' E 103°43'0 0.0
2017-Oct-31 14:25N 01°18' E 103°43'0 0.0
2017-Oct-31 13:55N 01°18' E 103°43'0 0.0
2017-Oct-31 13:25N 01°18' E 103°43'0 0.0
2017-Oct-31 12:55N 01°18' E 103°43'0 0.0
2017-Oct-31 12:24N 01°18' E 103°43'0 0.0
2017-Oct-31 11:54N 01°18' E 103°43'0 0.0
2017-Oct-31 11:30N 01°18' E 103°43'0 0.0
2017-Oct-31 10:54N 01°18' E 103°43'0 0.0
2017-Oct-31 10:30N 01°18' E 103°43'0 0.0
2017-Oct-31 09:59N 01°18' E 103°43'0 0.0
2017-Oct-31 09:23N 01°18' E 103°43'0 0.0
2017-Oct-31 08:59N 01°18' E 103°43'0 0.0
2017-Oct-31 08:29N 01°18' E 103°43'0 0.0
2017-Oct-31 07:58N 01°18' E 103°43'0 0.0
2017-Oct-31 07:28N 01°18' E 103°43'0 0.0
2017-Oct-31 06:52N 01°18' E 103°43'0 0.0
2017-Oct-31 06:28N 01°18' E 103°43'0 0.0
2017-Oct-31 05:58N 01°18' E 103°43'0 0.0
2017-Oct-31 05:21N 01°18' E 103°43'0 0.0
2017-Oct-31 04:57N 01°18' E 103°43'0 0.0
2017-Oct-31 04:21N 01°18' E 103°43'0 0.0
2017-Oct-31 03:57N 01°18' E 103°43'0 0.0
2017-Oct-31 03:26N 01°18' E 103°43'0 0.0
2017-Oct-31 03:00N 01°18' E 103°43'2 4.8
2017-Oct-31 02:30N 01°17' E 103°45'510.5
2017-Oct-31 02:00N 01°13' E 103°41'510.1
2017-Oct-31 01:30N 01°13' E 103°36'713.1
2017-Oct-31 01:00N 01°10' E 103°30'916.8
2017-Oct-31 00:29N 01°14' E 103°22'  
Track history (hours):
 
Tides and Currents Weather Stations Pressure Air Temp Water Temp Dewpoint Dewpoint Depression Visibility Wind Speed Wind Dir Waves Ship Positions

Regine

Last reported at 2017-Nov-09 02:20 UTC. Time now 2017-Nov-19 01:33 UTC.
Position N 01°17' E 103°21'.
Warning: this ship's position is 9 days out of date.

Length 159 m; draft 8.1 m.

Type: Cargo ship. MMSI: 218170000.

Date/timePositionNaut miles runAvg speedWind from/ knotsBaromVisibWave heightAir tempDewpointWater temp
2017-Nov-09 02:20N 01°17' E 103°21'619.5
2017-Nov-09 02:00N 01°14' E 103°27'1020.1
2017-Nov-09 01:30N 01°12' E 103°37'917.9
2017-Nov-09 01:00N 01°09' E 103°45'1019.3
2017-Nov-09 00:29N 01°14' E 103°54'2 2.2
2017-Nov-08 23:42N 01°15' E 103°53'0 0.0
2017-Nov-08 23:29N 01°15' E 103°53'0 0.0
2017-Nov-08 22:59N 01°15' E 103°53'0 0.0
2017-Nov-08 22:17N 01°15' E 103°53'0 0.0
2017-Nov-08 21:59N 01°15' E 103°53'0 0.0
2017-Nov-08 21:23N 01°15' E 103°53'0 0.0
2017-Nov-08 20:58N 01°15' E 103°53'0 0.0
2017-Nov-08 20:28N 01°15' E 103°53'0 0.0
2017-Nov-08 19:58N 01°15' E 103°53'0 0.0
2017-Nov-08 19:24N 01°15' E 103°53'0 0.0
2017-Nov-08 18:58N 01°15' E 103°53'0 0.0
2017-Nov-08 18:27N 01°15' E 103°53'0 0.0
2017-Nov-08 17:51N 01°15' E 103°53'0 0.0
2017-Nov-08 17:23N 01°15' E 103°53'0 0.0
2017-Nov-08 16:57N 01°15' E 103°53'0 0.0
2017-Nov-08 16:26N 01°15' E 103°53'0 0.0
2017-Nov-08 15:50N 01°15' E 103°53'0 0.0
2017-Nov-08 15:26N 01°15' E 103°53'0 0.0
2017-Nov-08 14:50N 01°15' E 103°53'0 0.0
2017-Nov-08 14:13N 01°15' E 103°53'0 0.2
2017-Nov-08 13:49N 01°15' E 103°54'0 0.0
2017-Nov-08 12:31N 01°15' E 103°54'0 0.1
2017-Nov-08 12:25N 01°15' E 103°54'0 0.2
2017-Nov-08 12:00N 01°15' E 103°54'2 3.3
2017-Nov-08 11:30N 01°14' E 103°53'0 0.5
2017-Nov-08 11:00N 01°14' E 103°54'0 0.6
2017-Nov-08 10:30N 01°14' E 103°54'611.1
2017-Nov-08 10:00N 01°15' E 103°59'7 4.1
2017-Nov-08 08:15N 01°20' E 104°05'4 0.6
2017-Nov-08 00:56N 01°22' E 104°02'510.5
2017-Nov-08 00:27N 01°19' E 104°06'2 0.1
2017-Nov-07 06:49N 01°19' E 104°07'6 7.3
2017-Nov-07 06:00N 01°14' E 104°05'611.3
2017-Nov-07 05:29N 01°10' E 103°60'  
2017-Nov-02 08:09N 01°10' E 104°00'1 2.2
2017-Nov-02 07:49N 01°11' E 103°59'2 7.3
2017-Nov-02 07:29N 01°11' E 103°57'2 4.8
2017-Nov-02 07:00N 01°12' E 103°55'714.0
2017-Nov-02 06:30N 01°13' E 103°48'611.1
2017-Nov-02 06:01N 01°17' E 103°44'2 3.7
2017-Nov-02 05:30N 01°18' E 103°43'0 0.0
2017-Nov-02 04:54N 01°18' E 103°43'0 0.0
2017-Nov-02 04:30N 01°18' E 103°43'0 0.0
2017-Nov-02 03:53N 01°18' E 103°43'0 0.0
2017-Nov-02 03:29N 01°18' E 103°43'0 0.0
2017-Nov-02 02:59N 01°18' E 103°43'0 0.0
2017-Nov-02 02:23N 01°18' E 103°43'0 0.0
2017-Nov-02 01:59N 01°18' E 103°43'0 0.0
2017-Nov-02 01:22N 01°18' E 103°43'0 0.0
2017-Nov-02 00:58N 01°18' E 103°43'0 0.0
2017-Nov-02 00:28N 01°18' E 103°43'0 0.0
2017-Nov-01 23:52N 01°18' E 103°43'0 0.0
2017-Nov-01 23:28N 01°18' E 103°43'0 0.0
2017-Nov-01 22:57N 01°18' E 103°43'0 0.0
2017-Nov-01 22:27N 01°18' E 103°43'0 0.0
2017-Nov-01 21:57N 01°18' E 103°43'0 0.0
2017-Nov-01 21:27N 01°18' E 103°43'0 0.0
2017-Nov-01 20:56N 01°18' E 103°43'0 0.0
2017-Nov-01 20:26N 01°18' E 103°43'0 0.0
2017-Nov-01 19:56N 01°18' E 103°43'0 0.0
2017-Nov-01 19:26N 01°18' E 103°43'0 0.0
2017-Nov-01 18:56N 01°18' E 103°43'0 0.0
2017-Nov-01 18:25N 01°18' E 103°43'0 0.0
2017-Nov-01 01:54N 01°18' E 103°43'0 0.0
2017-Nov-01 01:30N 01°18' E 103°43'0 0.0
2017-Nov-01 01:00N 01°18' E 103°43'0 0.0
2017-Nov-01 00:30N 01°18' E 103°43'0 0.0
2017-Oct-31 23:59N 01°18' E 103°43'0 0.0
2017-Oct-31 23:29N 01°18' E 103°43'0 0.0
2017-Oct-31 22:53N 01°18' E 103°43'0 0.0
2017-Oct-31 22:29N 01°18' E 103°43'0 0.0
2017-Oct-31 21:59N 01°18' E 103°43'0 0.0
2017-Oct-31 21:28N 01°18' E 103°43'0 0.0
2017-Oct-31 20:58N 01°18' E 103°43'0 0.0
2017-Oct-31 20:28N 01°18' E 103°43'0 0.0
2017-Oct-31 19:58N 01°18' E 103°43'0 0.0
2017-Oct-31 19:27N 01°18' E 103°43'0 0.0
2017-Oct-31 18:57N 01°18' E 103°43'0 0.0
2017-Oct-31 18:27N 01°18' E 103°43'0 0.0
2017-Oct-31 17:57N 01°18' E 103°43'0 0.0
2017-Oct-31 17:27N 01°18' E 103°43'0 0.0
2017-Oct-31 16:56N 01°18' E 103°43'0 0.0
2017-Oct-31 16:26N 01°18' E 103°43'0 0.0
2017-Oct-31 15:56N 01°18' E 103°43'0 0.0
2017-Oct-31 15:26N 01°18' E 103°43'0 0.0
2017-Oct-31 14:55N 01°18' E 103°43'0 0.0
2017-Oct-31 14:25N 01°18' E 103°43'0 0.0
2017-Oct-31 13:55N 01°18' E 103°43'0 0.0
2017-Oct-31 13:25N 01°18' E 103°43'0 0.0
2017-Oct-31 12:55N 01°18' E 103°43'0 0.0
2017-Oct-31 12:24N 01°18' E 103°43'0 0.0
2017-Oct-31 11:54N 01°18' E 103°43'0 0.0
2017-Oct-31 11:30N 01°18' E 103°43'0 0.0
2017-Oct-31 10:54N 01°18' E 103°43'0 0.0
2017-Oct-31 10:30N 01°18' E 103°43'0 0.0
2017-Oct-31 09:59N 01°18' E 103°43'0 0.0
2017-Oct-31 09:23N 01°18' E 103°43'0 0.0
2017-Oct-31 08:59N 01°18' E 103°43'0 0.0
2017-Oct-31 08:29N 01°18' E 103°43'0 0.0
2017-Oct-31 07:58N 01°18' E 103°43'0 0.0
2017-Oct-31 07:28N 01°18' E 103°43'0 0.0
2017-Oct-31 06:52N 01°18' E 103°43'0 0.0
2017-Oct-31 06:28N 01°18' E 103°43'0 0.0
2017-Oct-31 05:58N 01°18' E 103°43'0 0.0
2017-Oct-31 05:21N 01°18' E 103°43'0 0.0
2017-Oct-31 04:57N 01°18' E 103°43'0 0.0
2017-Oct-31 04:21N 01°18' E 103°43'0 0.0
2017-Oct-31 03:57N 01°18' E 103°43'0 0.0
2017-Oct-31 03:26N 01°18' E 103°43'0 0.0
2017-Oct-31 03:00N 01°18' E 103°43'2 4.8
2017-Oct-31 02:30N 01°17' E 103°45'510.5
2017-Oct-31 02:00N 01°13' E 103°41'510.1
2017-Oct-31 01:30N 01°13' E 103°36'713.1
2017-Oct-31 01:00N 01°10' E 103°30'916.8
2017-Oct-31 00:29N 01°14' E 103°22'  

Dump ship's entire track history